KCTY

Cross City Airport

Cross City, Florida, USA
METAR KCTY 162355Z AUTO 00000KT 10SM CLR 10/07 A3030 RMK AO2 T01040072 10189 20102 401890065
Observed Flight Rules
Dec-16 @ 23:55 UTC (32 minutes ago) Visual Flight Rules
Wind Visibility Clouds
Calm 10 miles
  • Clear skies
Temperatures Readings
Current 10°C / 50°F
Dewpoint 7°C / 45°F
Humidity 82%
Altimeter 30.3" Hg
Pressure 1026 hPa
Elevation 13
METAR KCTY 162355Z AUTO 00000KT 10SM CLR 10/07 A3030 RMK AO2 T01040072 10189 20102 401890065
Observed Flight Rules
Dec-16 @ 23:55 UTC
(32 minutes ago)
VFR
Wind Visibility
Calm 10 miles
Clouds
  • Clear skies
Temperature Dewpoint
10°C / 50°F 7°C / 45°F
Humidity Altimeter Pressure
82% 30.3" Hg 1026 hPa